sensor_id;sensor_type;location;lat;lon;timestamp;pressure;altitude;pressure_sealevel;temperature;humidity
77939;BME280;67136;47.546;21.630;2023-12-20T00:02:20;100350.44;;;-3.02;100.00
77939;BME280;67136;47.546;21.630;2023-12-20T00:05:26;100343.53;;;-2.99;100.00
77939;BME280;67136;47.546;21.630;2023-12-20T00:08:29;100348.25;;;-3.14;100.00
77939;BME280;67136;47.546;21.630;2023-12-20T00:11:32;100331.97;;;-3.12;100.00
77939;BME280;67136;47.546;21.630;2023-12-20T00:14:34;100338.50;;;-3.02;100.00
77939;BME280;67136;47.546;21.630;2023-12-20T00:17:38;100333.72;;;-3.14;100.00
77939;BME280;67136;47.546;21.630;2023-12-20T00:20:40;100323.59;;;-3.17;100.00
77939;BME280;67136;47.546;21.630;2023-12-20T00:23:43;100318.56;;;-3.20;100.00
77939;BME280;67136;47.546;21.630;2023-12-20T00:26:45;100308.69;;;-3.33;100.00
77939;BME280;67136;47.546;21.630;2023-12-20T00:29:48;100307.41;;;-3.17;100.00
77939;BME280;67136;47.546;21.630;2023-12-20T00:32:52;100312.03;;;-2.99;100.00
77939;BME280;67136;47.546;21.630;2023-12-20T00:35:54;100299.16;;;-3.27;100.00
77939;BME280;67136;47.546;21.630;2023-12-20T00:38:57;100293.53;;;-3.09;100.00
77939;BME280;67136;47.546;21.630;2023-12-20T00:42:00;100288.94;;;-2.96;100.00
77939;BME280;67136;47.546;21.630;2023-12-20T00:45:02;100290.41;;;-2.88;100.00
77939;BME280;67136;47.546;21.630;2023-12-20T00:48:07;100282.09;;;-2.96;100.00
77939;BME280;67136;47.546;21.630;2023-12-20T00:51:09;100282.25;;;-3.02;100.00
77939;BME280;67136;47.546;21.630;2023-12-20T00:54:12;100280.41;;;-2.97;100.00
77939;BME280;67136;47.546;21.630;2023-12-20T00:57:15;100272.59;;;-2.92;100.00
77939;BME280;67136;47.546;21.630;2023-12-20T01:00:19;100266.31;;;-2.81;100.00
77939;BME280;67136;47.546;21.630;2023-12-20T01:03:23;100266.31;;;-2.81;100.00
77939;BME280;67136;47.546;21.630;2023-12-20T01:06:29;100261.97;;;-3.08;100.00
77939;BME280;67136;47.546;21.630;2023-12-20T01:09:31;100249.38;;;-2.85;100.00
77939;BME280;67136;47.546;21.630;2023-12-20T01:12:36;100227.56;;;-2.96;100.00
77939;BME280;67136;47.546;21.630;2023-12-20T01:15:39;100224.50;;;-3.09;100.00
77939;BME280;67136;47.546;21.630;2023-12-20T01:18:42;100246.47;;;-3.02;100.00
77939;BME280;67136;47.546;21.630;2023-12-20T01:21:44;100239.03;;;-3.09;100.00
77939;BME280;67136;47.546;21.630;2023-12-20T01:24:47;100219.97;;;-2.99;100.00
77939;BME280;67136;47.546;21.630;2023-12-20T01:27:52;100221.28;;;-2.86;100.00
77939;BME280;67136;47.546;21.630;2023-12-20T01:30:55;100207.06;;;-2.95;100.00
77939;BME280;67136;47.546;21.630;2023-12-20T01:33:58;100178.91;;;-3.24;100.00
77939;BME280;67136;47.546;21.630;2023-12-20T01:37:02;100201.22;;;-3.00;100.00
77939;BME280;67136;47.546;21.630;2023-12-20T01:40:05;100198.69;;;-3.00;100.00
77939;BME280;67136;47.546;21.630;2023-12-20T01:43:08;100189.69;;;-3.13;100.00
77939;BME280;67136;47.546;21.630;2023-12-20T01:46:12;100185.72;;;-3.23;100.00
77939;BME280;67136;47.546;21.630;2023-12-20T01:49:15;100188.44;;;-3.00;100.00
77939;BME280;67136;47.546;21.630;2023-12-20T01:52:19;100188.81;;;-3.12;100.00
77939;BME280;67136;47.546;21.630;2023-12-20T01:55:22;100182.38;;;-3.25;100.00
77939;BME280;67136;47.546;21.630;2023-12-20T01:58:25;100170.94;;;-3.13;100.00
77939;BME280;67136;47.546;21.630;2023-12-20T02:01:29;100172.56;;;-3.11;100.00
77939;BME280;67136;47.546;21.630;2023-12-20T02:04:32;100168.00;;;-3.00;100.00
77939;BME280;67136;47.546;21.630;2023-12-20T02:07:35;100158.56;;;-2.98;100.00
77939;BME280;67136;47.546;21.630;2023-12-20T02:10:37;100147.16;;;-2.88;100.00
77939;BME280;67136;47.546;21.630;2023-12-20T02:13:40;100142.22;;;-2.94;100.00
77939;BME280;67136;47.546;21.630;2023-12-20T02:16:43;100141.00;;;-2.81;100.00
77939;BME280;67136;47.546;21.630;2023-12-20T02:19:48;100125.59;;;-3.07;100.00
77939;BME280;67136;47.546;21.630;2023-12-20T02:22:50;100122.28;;;-3.10;100.00
77939;BME280;67136;47.546;21.630;2023-12-20T02:25:53;100111.75;;;-3.29;100.00
77939;BME280;67136;47.546;21.630;2023-12-20T02:28:56;100125.78;;;-3.13;100.00
77939;BME280;67136;47.546;21.630;2023-12-20T02:31:59;100121.59;;;-3.15;100.00
77939;BME280;67136;47.546;21.630;2023-12-20T02:35:02;100122.31;;;-3.12;100.00
77939;BME280;67136;47.546;21.630;2023-12-20T02:38:05;100109.59;;;-3.13;100.00
77939;BME280;67136;47.546;21.630;2023-12-20T02:41:07;100111.25;;;-3.12;100.00
77939;BME280;67136;47.546;21.630;2023-12-20T02:44:10;100116.16;;;-3.05;100.00
77939;BME280;67136;47.546;21.630;2023-12-20T02:47:13;100095.66;;;-3.03;100.00
77939;BME280;67136;47.546;21.630;2023-12-20T02:50:16;100108.22;;;-2.96;100.00
77939;BME280;67136;47.546;21.630;2023-12-20T02:53:19;100099.53;;;-2.92;100.00
77939;BME280;67136;47.546;21.630;2023-12-20T02:56:22;100092.66;;;-2.64;100.00
77939;BME280;67136;47.546;21.630;2023-12-20T02:59:24;100099.41;;;-2.61;100.00
77939;BME280;67136;47.546;21.630;2023-12-20T03:02:27;100099.16;;;-2.54;100.00
77939;BME280;67136;47.546;21.630;2023-12-20T03:05:29;100101.94;;;-2.60;100.00
77939;BME280;67136;47.546;21.630;2023-12-20T03:08:32;100103.19;;;-2.46;100.00
77939;BME280;67136;47.546;21.630;2023-12-20T03:11:35;100096.16;;;-2.40;100.00
77939;BME280;67136;47.546;21.630;2023-12-20T03:14:38;100090.25;;;-2.42;100.00
77939;BME280;67136;47.546;21.630;2023-12-20T03:17:40;100079.38;;;-2.48;100.00
77939;BME280;67136;47.546;21.630;2023-12-20T03:20:44;100081.16;;;-2.50;100.00
77939;BME280;67136;47.546;21.630;2023-12-20T03:23:47;100075.84;;;-2.44;100.00
77939;BME280;67136;47.546;21.630;2023-12-20T03:26:50;100066.50;;;-2.45;100.00
77939;BME280;67136;47.546;21.630;2023-12-20T03:29:53;100067.37;;;-2.46;100.00
77939;BME280;67136;47.546;21.630;2023-12-20T03:32:56;100056.16;;;-2.42;100.00
77939;BME280;67136;47.546;21.630;2023-12-20T03:35:58;100052.34;;;-2.56;100.00
77939;BME280;67136;47.546;21.630;2023-12-20T03:39:02;100051.03;;;-2.69;100.00
77939;BME280;67136;47.546;21.630;2023-12-20T03:42:05;100034.50;;;-2.59;100.00
77939;BME280;67136;47.546;21.630;2023-12-20T03:45:08;100043.28;;;-2.66;100.00
77939;BME280;67136;47.546;21.630;2023-12-20T03:48:11;100025.28;;;-2.63;100.00
77939;BME280;67136;47.546;21.630;2023-12-20T03:51:14;100035.91;;;-2.75;100.00
77939;BME280;67136;47.546;21.630;2023-12-20T03:54:17;100026.34;;;-2.70;100.00
77939;BME280;67136;47.546;21.630;2023-12-20T03:57:20;100013.37;;;-2.90;100.00
77939;BME280;67136;47.546;21.630;2023-12-20T04:00:22;99999.88;;;-2.93;100.00
77939;BME280;67136;47.546;21.630;2023-12-20T04:03:25;99995.81;;;-3.00;100.00
77939;BME280;67136;47.546;21.630;2023-12-20T04:06:28;100001.34;;;-2.86;100.00
77939;BME280;67136;47.546;21.630;2023-12-20T04:09:31;100006.50;;;-3.14;100.00
77939;BME280;67136;47.546;21.630;2023-12-20T04:12:33;99993.59;;;-3.11;100.00
77939;BME280;67136;47.546;21.630;2023-12-20T04:15:36;99991.59;;;-3.27;100.00
77939;BME280;67136;47.546;21.630;2023-12-20T04:18:38;99998.50;;;-3.31;100.00
77939;BME280;67136;47.546;21.630;2023-12-20T04:21:41;99986.53;;;-3.29;100.00
77939;BME280;67136;47.546;21.630;2023-12-20T04:24:44;99993.87;;;-3.46;100.00
77939;BME280;67136;47.546;21.630;2023-12-20T04:27:47;99979.03;;;-3.61;100.00
77939;BME280;67136;47.546;21.630;2023-12-20T04:30:50;99983.63;;;-3.72;100.00
77939;BME280;67136;47.546;21.630;2023-12-20T04:33:53;99979.63;;;-3.81;100.00
77939;BME280;67136;47.546;21.630;2023-12-20T04:36:55;99974.62;;;-3.84;100.00
77939;BME280;67136;47.546;21.630;2023-12-20T04:39:58;99974.81;;;-3.91;100.00
77939;BME280;67136;47.546;21.630;2023-12-20T04:43:01;99971.66;;;-3.99;100.00
77939;BME280;67136;47.546;21.630;2023-12-20T04:46:04;99968.41;;;-4.04;100.00
77939;BME280;67136;47.546;21.630;2023-12-20T04:49:07;99969.56;;;-4.14;100.00
77939;BME280;67136;47.546;21.630;2023-12-20T04:52:10;99958.81;;;-4.25;100.00
77939;BME280;67136;47.546;21.630;2023-12-20T04:55:13;99929.38;;;-4.37;100.00
77939;BME280;67136;47.546;21.630;2023-12-20T04:58:16;99913.41;;;-4.43;100.00
77939;BME280;67136;47.546;21.630;2023-12-20T05:01:19;99954.47;;;-4.22;100.00
77939;BME280;67136;47.546;21.630;2023-12-20T05:04:23;99958.62;;;-4.19;100.00
77939;BME280;67136;47.546;21.630;2023-12-20T05:07:26;99940.87;;;-4.22;100.00
77939;BME280;67136;47.546;21.630;2023-12-20T05:10:30;99929.50;;;-4.41;100.00
77939;BME280;67136;47.546;21.630;2023-12-20T05:13:32;99950.47;;;-4.30;100.00
77939;BME280;67136;47.546;21.630;2023-12-20T05:16:46;99951.94;;;-4.23;100.00
77939;BME280;67136;47.546;21.630;2023-12-20T05:19:49;99951.94;;;-4.23;100.00
77939;BME280;67136;47.546;21.630;2023-12-20T05:22:52;99962.37;;;-4.31;100.00
77939;BME280;67136;47.546;21.630;2023-12-20T05:25:55;99966.00;;;-4.39;100.00
77939;BME280;67136;47.546;21.630;2023-12-20T05:28:58;99967.75;;;-4.41;100.00
77939;BME280;67136;47.546;21.630;2023-12-20T05:32:00;99959.97;;;-4.37;100.00
77939;BME280;67136;47.546;21.630;2023-12-20T05:35:03;99967.75;;;-4.41;100.00
77939;BME280;67136;47.546;21.630;2023-12-20T05:38:06;99964.47;;;-4.45;100.00
77939;BME280;67136;47.546;21.630;2023-12-20T05:41:09;99972.19;;;-4.48;100.00
77939;BME280;67136;47.546;21.630;2023-12-20T05:44:11;99972.88;;;-4.41;100.00
77939;BME280;67136;47.546;21.630;2023-12-20T05:47:14;99981.41;;;-4.42;100.00
77939;BME280;67136;47.546;21.630;2023-12-20T05:50:16;99974.62;;;-4.43;100.00
77939;BME280;67136;47.546;21.630;2023-12-20T05:53:19;99974.47;;;-4.37;100.00
77939;BME280;67136;47.546;21.630;2023-12-20T05:56:21;99973.38;;;-4.29;100.00
77939;BME280;67136;47.546;21.630;2023-12-20T05:59:24;99975.97;;;-4.30;100.00
77939;BME280;67136;47.546;21.630;2023-12-20T06:02:27;99964.78;;;-4.26;100.00
77939;BME280;67136;47.546;21.630;2023-12-20T06:05:29;99976.84;;;-4.31;100.00
77939;BME280;67136;47.546;21.630;2023-12-20T06:08:32;99981.09;;;-4.30;100.00
77939;BME280;67136;47.546;21.630;2023-12-20T06:11:34;99980.06;;;-4.25;100.00
77939;BME280;67136;47.546;21.630;2023-12-20T06:14:37;99976.50;;;-4.19;100.00
77939;BME280;67136;47.546;21.630;2023-12-20T06:17:39;99968.84;;;-4.19;100.00
77939;BME280;67136;47.546;21.630;2023-12-20T06:20:42;99960.22;;;-4.15;100.00
77939;BME280;67136;47.546;21.630;2023-12-20T06:23:45;99959.34;;;-4.14;100.00
77939;BME280;67136;47.546;21.630;2023-12-20T06:26:48;99949.75;;;-4.06;100.00
77939;BME280;67136;47.546;21.630;2023-12-20T06:29:51;99951.50;;;-4.08;100.00
77939;BME280;67136;47.546;21.630;2023-12-20T06:32:54;99936.56;;;-4.20;100.00
77939;BME280;67136;47.546;21.630;2023-12-20T06:35:57;99949.94;;;-4.12;100.00
77939;BME280;67136;47.546;21.630;2023-12-20T06:39:00;99948.25;;;-4.13;100.00
77939;BME280;67136;47.546;21.630;2023-12-20T06:42:03;99943.81;;;-4.07;100.00
77939;BME280;67136;47.546;21.630;2023-12-20T06:45:06;99942.63;;;-3.95;100.00
77939;BME280;67136;47.546;21.630;2023-12-20T06:48:12;99951.44;;;-3.78;100.00
77939;BME280;67136;47.546;21.630;2023-12-20T06:51:16;99952.28;;;-3.77;100.00
77939;BME280;67136;47.546;21.630;2023-12-20T06:54:20;99944.88;;;-3.86;100.00
77939;BME280;67136;47.546;21.630;2023-12-20T06:57:23;99950.63;;;-3.80;100.00
77939;BME280;67136;47.546;21.630;2023-12-20T07:00:28;99949.75;;;-3.51;100.00
77939;BME280;67136;47.546;21.630;2023-12-20T07:03:31;99920.28;;;-3.35;100.00
77939;BME280;67136;47.546;21.630;2023-12-20T07:06:35;99940.03;;;-3.14;100.00
77939;BME280;67136;47.546;21.630;2023-12-20T07:09:37;99938.72;;;-3.01;100.00
77939;BME280;67136;47.546;21.630;2023-12-20T07:12:41;99942.25;;;-2.79;100.00
77939;BME280;67136;47.546;21.630;2023-12-20T07:15:44;99935.16;;;-2.71;100.00
77939;BME280;67136;47.546;21.630;2023-12-20T07:18:49;99935.41;;;-2.78;100.00
77939;BME280;67136;47.546;21.630;2023-12-20T07:21:53;99937.66;;;-2.69;100.00
77939;BME280;67136;47.546;21.630;2023-12-20T07:24:56;99930.38;;;-2.57;100.00
77939;BME280;67136;47.546;21.630;2023-12-20T07:27:59;99918.13;;;-2.47;100.00
77939;BME280;67136;47.546;21.630;2023-12-20T07:31:02;99906.78;;;-1.52;100.00
77939;BME280;67136;47.546;21.630;2023-12-20T07:34:05;99922.91;;;-1.29;100.00
77939;BME280;67136;47.546;21.630;2023-12-20T07:37:08;99913.72;;;-0.54;100.00
77939;BME280;67136;47.546;21.630;2023-12-20T07:40:12;99902.84;;;-0.99;100.00
77939;BME280;67136;47.546;21.630;2023-12-20T07:43:15;99906.28;;;-0.60;100.00
77939;BME280;67136;47.546;21.630;2023-12-20T07:46:20;99911.56;;;-0.24;100.00
77939;BME280;67136;47.546;21.630;2023-12-20T07:49:26;99910.44;;;-0.19;100.00
77939;BME280;67136;47.546;21.630;2023-12-20T07:52:29;99904.06;;;0.44;100.00
77939;BME280;67136;47.546;21.630;2023-12-20T07:55:33;99895.84;;;0.55;100.00
77939;BME280;67136;47.546;21.630;2023-12-20T07:58:35;99892.22;;;0.59;100.00
77939;BME280;67136;47.546;21.630;2023-12-20T08:01:56;99888.09;;;1.06;95.79
77939;BME280;67136;47.546;21.630;2023-12-20T08:05:05;99874.44;;;2.63;87.83
77939;BME280;67136;47.546;21.630;2023-12-20T08:08:08;99863.22;;;2.03;88.18
77939;BME280;67136;47.546;21.630;2023-12-20T08:11:13;99852.44;;;2.41;87.11
77939;BME280;67136;47.546;21.630;2023-12-20T08:14:15;99851.97;;;1.57;93.39
77939;BME280;67136;47.546;21.630;2023-12-20T08:17:19;99861.03;;;1.95;92.94
77939;BME280;67136;47.546;21.630;2023-12-20T08:20:21;99860.78;;;2.61;90.12
77939;BME280;67136;47.546;21.630;2023-12-20T08:23:34;99860.00;;;3.88;83.97
77939;BME280;67136;47.546;21.630;2023-12-20T08:26:37;99863.47;;;3.87;84.80
77939;BME280;67136;47.546;21.630;2023-12-20T08:29:43;99851.53;;;3.99;80.06
77939;BME280;67136;47.546;21.630;2023-12-20T08:32:48;99849.66;;;4.41;79.03
77939;BME280;67136;47.546;21.630;2023-12-20T08:35:52;99833.41;;;2.58;86.75
77939;BME280;67136;47.546;21.630;2023-12-20T08:38:55;99829.53;;;3.65;82.32
77939;BME280;67136;47.546;21.630;2023-12-20T08:41:58;99832.28;;;2.18;88.27
77939;BME280;67136;47.546;21.630;2023-12-20T08:45:01;99830.94;;;1.80;96.29
77939;BME280;67136;47.546;21.630;2023-12-20T08:48:07;99817.97;;;1.97;98.81
77939;BME280;67136;47.546;21.630;2023-12-20T08:51:13;99815.19;;;2.61;95.70
77939;BME280;67136;47.546;21.630;2023-12-20T08:54:16;99818.94;;;2.55;94.29
77939;BME280;67136;47.546;21.630;2023-12-20T08:57:20;99819.19;;;2.95;97.26
77939;BME280;67136;47.546;21.630;2023-12-20T09:00:24;99804.09;;;3.86;88.85
77939;BME280;67136;47.546;21.630;2023-12-20T09:03:30;99806.66;;;3.59;91.40
77939;BME280;67136;47.546;21.630;2023-12-20T09:06:33;99811.78;;;4.65;85.00
77939;BME280;67136;47.546;21.630;2023-12-20T09:09:36;99817.81;;;4.53;84.60
77939;BME280;67136;47.546;21.630;2023-12-20T09:12:39;99828.63;;;5.23;81.88
77939;BME280;67136;47.546;21.630;2023-12-20T09:15:43;99827.78;;;5.47;81.53
77939;BME280;67136;47.546;21.630;2023-12-20T09:18:46;99827.56;;;5.50;82.17
77939;BME280;67136;47.546;21.630;2023-12-20T09:21:49;99835.63;;;6.43;79.91
77939;BME280;67136;47.546;21.630;2023-12-20T09:24:52;99837.62;;;7.42;75.05
77939;BME280;67136;47.546;21.630;2023-12-20T09:27:55;99832.06;;;7.57;73.06
77939;BME280;67136;47.546;21.630;2023-12-20T09:30:58;99838.88;;;8.77;65.89
77939;BME280;67136;47.546;21.630;2023-12-20T09:34:01;99829.69;;;8.62;65.75
77939;BME280;67136;47.546;21.630;2023-12-20T09:37:05;99831.06;;;8.98;64.44
77939;BME280;67136;47.546;21.630;2023-12-20T09:40:11;99830.47;;;9.35;62.28
77939;BME280;67136;47.546;21.630;2023-12-20T09:43:19;99822.59;;;9.56;60.46
77939;BME280;67136;47.546;21.630;2023-12-20T09:46:24;99820.88;;;10.34;58.53
77939;BME280;67136;47.546;21.630;2023-12-20T09:49:30;99807.69;;;9.77;59.32
77939;BME280;67136;47.546;21.630;2023-12-20T09:52:34;99801.78;;;9.35;61.90
77939;BME280;67136;47.546;21.630;2023-12-20T09:55:41;99806.16;;;10.14;57.60
77939;BME280;67136;47.546;21.630;2023-12-20T09:58:43;99801.63;;;9.37;60.74
77939;BME280;67136;47.546;21.630;2023-12-20T10:01:46;99792.44;;;8.19;64.93
77939;BME280;67136;47.546;21.630;2023-12-20T10:04:49;99798.06;;;6.36;71.80
77939;BME280;67136;47.546;21.630;2023-12-20T10:07:52;99786.41;;;5.82;75.01
77939;BME280;67136;47.546;21.630;2023-12-20T10:10:55;99784.91;;;5.05;80.19
77939;BME280;67136;47.546;21.630;2023-12-20T10:14:00;99784.91;;;5.05;79.69
77939;BME280;67136;47.546;21.630;2023-12-20T10:17:06;99772.44;;;4.48;82.82
77939;BME280;67136;47.546;21.630;2023-12-20T10:20:09;99762.50;;;4.54;82.77
77939;BME280;67136;47.546;21.630;2023-12-20T10:23:13;99756.94;;;3.82;89.00
77939;BME280;67136;47.546;21.630;2023-12-20T10:26:22;99756.47;;;4.02;88.14
77939;BME280;67136;47.546;21.630;2023-12-20T10:29:25;99757.09;;;3.93;89.82
77939;BME280;67136;47.546;21.630;2023-12-20T10:32:28;99740.81;;;3.24;93.29
77939;BME280;67136;47.546;21.630;2023-12-20T10:35:31;99737.69;;;2.77;93.23
77939;BME280;67136;47.546;21.630;2023-12-20T10:38:35;99720.34;;;3.07;93.08
77939;BME280;67136;47.546;21.630;2023-12-20T10:41:41;99733.13;;;3.77;90.98
77939;BME280;67136;47.546;21.630;2023-12-20T10:44:46;99730.72;;;4.01;88.78
77939;BME280;67136;47.546;21.630;2023-12-20T10:47:50;99724.41;;;4.56;87.38
77939;BME280;67136;47.546;21.630;2023-12-20T10:50:55;99721.41;;;4.62;86.04
77939;BME280;67136;47.546;21.630;2023-12-20T10:53:58;99711.78;;;4.64;83.55
77939;BME280;67136;47.546;21.630;2023-12-20T10:57:05;99706.59;;;3.20;91.29
77939;BME280;67136;47.546;21.630;2023-12-20T11:00:09;99717.59;;;3.77;87.23
77939;BME280;67136;47.546;21.630;2023-12-20T11:03:17;99733.03;;;6.03;78.98
77939;BME280;67136;47.546;21.630;2023-12-20T11:06:36;99722.50;;;6.28;72.17
77939;BME280;67136;47.546;21.630;2023-12-20T11:09:48;99710.66;;;6.81;72.62
77939;BME280;67136;47.546;21.630;2023-12-20T11:13:12;99710.78;;;6.79;74.33
77939;BME280;67136;47.546;21.630;2023-12-20T11:16:19;99697.91;;;9.29;62.32
77939;BME280;67136;47.546;21.630;2023-12-20T11:19:25;99693.91;;;9.93;61.43
77939;BME280;67136;47.546;21.630;2023-12-20T11:22:31;99677.91;;;8.90;65.41
77939;BME280;67136;47.546;21.630;2023-12-20T11:25:48;99678.75;;;9.40;59.73
77939;BME280;67136;47.546;21.630;2023-12-20T11:28:51;99669.09;;;8.91;60.51
77939;BME280;67136;47.546;21.630;2023-12-20T11:31:54;99644.88;;;8.40;63.72
77939;BME280;67136;47.546;21.630;2023-12-20T11:38:15;99660.91;;;11.68;51.09
77939;BME280;67136;47.546;21.630;2023-12-20T11:41:18;99660.56;;;11.53;51.19
77939;BME280;67136;47.546;21.630;2023-12-20T11:44:21;99661.62;;;13.57;46.90
77939;BME280;67136;47.546;21.630;2023-12-20T11:47:23;99658.03;;;13.16;47.11
77939;BME280;67136;47.546;21.630;2023-12-20T11:50:26;99646.62;;;11.35;49.49
77939;BME280;67136;47.546;21.630;2023-12-20T11:53:30;99634.34;;;10.54;53.48
77939;BME280;67136;47.546;21.630;2023-12-20T11:56:36;99633.94;;;11.40;53.47
77939;BME280;67136;47.546;21.630;2023-12-20T11:59:39;99638.88;;;12.57;46.92
77939;BME280;67136;47.546;21.630;2023-12-20T12:02:42;99626.59;;;12.65;48.45
77939;BME280;67136;47.546;21.630;2023-12-20T12:05:48;99622.72;;;11.03;51.12
77939;BME280;67136;47.546;21.630;2023-12-20T12:08:50;99624.75;;;10.82;51.93
77939;BME280;67136;47.546;21.630;2023-12-20T12:11:54;99639.28;;;12.70;48.04
77939;BME280;67136;47.546;21.630;2023-12-20T12:14:57;99633.78;;;10.87;51.74
77939;BME280;67136;47.546;21.630;2023-12-20T12:18:00;99657.47;;;10.86;53.13
77939;BME280;67136;47.546;21.630;2023-12-20T12:21:03;99672.81;;;7.86;62.83
77939;BME280;67136;47.546;21.630;2023-12-20T12:24:14;99673.31;;;6.49;69.22
77939;BME280;67136;47.546;21.630;2023-12-20T12:27:17;99670.59;;;3.58;83.57
77939;BME280;67136;47.546;21.630;2023-12-20T12:30:20;99661.22;;;3.43;89.42
77939;BME280;67136;47.546;21.630;2023-12-20T12:33:25;99670.00;;;3.67;89.08
77939;BME280;67136;47.546;21.630;2023-12-20T12:36:29;99653.25;;;2.50;96.87
77939;BME280;67136;47.546;21.630;2023-12-20T12:39:32;99632.41;;;2.25;97.28
77939;BME280;67136;47.546;21.630;2023-12-20T12:42:35;99616.81;;;1.85;100.00
77939;BME280;67136;47.546;21.630;2023-12-20T12:45:38;99584.56;;;1.78;100.00
77939;BME280;67136;47.546;21.630;2023-12-20T12:48:41;99590.13;;;1.56;100.00
77939;BME280;67136;47.546;21.630;2023-12-20T12:51:48;99591.03;;;1.25;100.00
77939;BME280;67136;47.546;21.630;2023-12-20T12:54:51;99567.84;;;1.55;100.00
77939;BME280;67136;47.546;21.630;2023-12-20T12:57:53;99555.25;;;2.36;100.00
77939;BME280;67136;47.546;21.630;2023-12-20T13:00:57;99551.63;;;1.39;100.00
77939;BME280;67136;47.546;21.630;2023-12-20T13:03:59;99546.41;;;1.55;100.00
77939;BME280;67136;47.546;21.630;2023-12-20T13:07:05;99534.97;;;1.74;100.00
77939;BME280;67136;47.546;21.630;2023-12-20T13:10:08;99521.59;;;1.24;100.00
77939;BME280;67136;47.546;21.630;2023-12-20T13:13:14;99531.03;;;1.39;100.00
77939;BME280;67136;47.546;21.630;2023-12-20T13:16:17;99522.00;;;1.32;100.00
77939;BME280;67136;47.546;21.630;2023-12-20T13:19:20;99517.69;;;0.87;100.00
77939;BME280;67136;47.546;21.630;2023-12-20T13:22:23;99513.16;;;0.61;100.00
77939;BME280;67136;47.546;21.630;2023-12-20T13:25:26;99505.44;;;0.77;100.00
77939;BME280;67136;47.546;21.630;2023-12-20T13:28:29;99518.19;;;0.63;100.00
77939;BME280;67136;47.546;21.630;2023-12-20T13:31:32;99524.06;;;0.34;100.00
77939;BME280;67136;47.546;21.630;2023-12-20T13:34:35;99521.16;;;0.24;100.00
77939;BME280;67136;47.546;21.630;2023-12-20T13:37:38;99512.25;;;-0.02;100.00
77939;BME280;67136;47.546;21.630;2023-12-20T13:40:41;99508.53;;;0.04;100.00
77939;BME280;67136;47.546;21.630;2023-12-20T13:43:44;99510.44;;;0.00;100.00
77939;BME280;67136;47.546;21.630;2023-12-20T13:46:47;99508.25;;;0.10;100.00
77939;BME280;67136;47.546;21.630;2023-12-20T13:49:52;99499.41;;;-0.17;100.00
77939;BME280;67136;47.546;21.630;2023-12-20T13:52:55;99503.34;;;-0.27;100.00
77939;BME280;67136;47.546;21.630;2023-12-20T13:55:58;99506.44;;;-0.21;100.00
77939;BME280;67136;47.546;21.630;2023-12-20T13:59:02;99508.00;;;-0.18;100.00
77939;BME280;67136;47.546;21.630;2023-12-20T14:02:05;99514.59;;;-0.30;100.00
77939;BME280;67136;47.546;21.630;2023-12-20T14:05:08;99522.03;;;-0.41;100.00
77939;BME280;67136;47.546;21.630;2023-12-20T14:08:12;99570.03;;;-0.09;100.00
77939;BME280;67136;47.546;21.630;2023-12-20T14:11:15;99571.63;;;0.10;100.00
77939;BME280;67136;47.546;21.630;2023-12-20T14:14:18;99600.25;;;-0.31;100.00
77939;BME280;67136;47.546;21.630;2023-12-20T14:17:22;99589.22;;;-0.16;100.00
77939;BME280;67136;47.546;21.630;2023-12-20T14:20:24;99584.34;;;-0.05;100.00
77939;BME280;67136;47.546;21.630;2023-12-20T14:23:27;99586.03;;;-0.21;100.00
77939;BME280;67136;47.546;21.630;2023-12-20T14:26:30;99578.59;;;-0.42;100.00
77939;BME280;67136;47.546;21.630;2023-12-20T14:29:35;99580.91;;;-0.38;100.00
77939;BME280;67136;47.546;21.630;2023-12-20T14:32:37;99587.34;;;-0.29;100.00
77939;BME280;67136;47.546;21.630;2023-12-20T14:35:40;99587.25;;;-0.11;100.00
77939;BME280;67136;47.546;21.630;2023-12-20T14:38:47;99579.78;;;-0.32;100.00
77939;BME280;67136;47.546;21.630;2023-12-20T14:41:50;99577.06;;;-0.29;100.00
77939;BME280;67136;47.546;21.630;2023-12-20T14:44:52;99567.56;;;-0.44;100.00
77939;BME280;67136;47.546;21.630;2023-12-20T14:47:57;99569.44;;;-0.31;100.00
77939;BME280;67136;47.546;21.630;2023-12-20T14:51:01;99569.72;;;-0.37;100.00
77939;BME280;67136;47.546;21.630;2023-12-20T14:54:04;99586.97;;;-0.39;100.00
77939;BME280;67136;47.546;21.630;2023-12-20T14:57:06;99578.34;;;-0.21;100.00
77939;BME280;67136;47.546;21.630;2023-12-20T15:00:11;99573.66;;;-0.47;100.00
77939;BME280;67136;47.546;21.630;2023-12-20T15:03:18;99580.00;;;-0.54;100.00
77939;BME280;67136;47.546;21.630;2023-12-20T15:06:21;99584.31;;;-0.54;100.00
77939;BME280;67136;47.546;21.630;2023-12-20T15:09:24;99583.16;;;-0.32;100.00
77939;BME280;67136;47.546;21.630;2023-12-20T15:12:27;99596.75;;;-0.30;100.00
77939;BME280;67136;47.546;21.630;2023-12-20T15:15:29;99605.75;;;-0.21;100.00
77939;BME280;67136;47.546;21.630;2023-12-20T15:18:32;99600.00;;;-0.09;100.00
77939;BME280;67136;47.546;21.630;2023-12-20T15:21:35;99602.47;;;0.10;100.00
77939;BME280;67136;47.546;21.630;2023-12-20T15:24:47;99617.31;;;0.05;100.00
77939;BME280;67136;47.546;21.630;2023-12-20T15:27:50;99619.44;;;-0.04;100.00
77939;BME280;67136;47.546;21.630;2023-12-20T15:30:56;99608.47;;;0.10;100.00
77939;BME280;67136;47.546;21.630;2023-12-20T15:33:59;99607.88;;;-0.29;100.00
77939;BME280;67136;47.546;21.630;2023-12-20T15:37:02;99609.91;;;-0.19;100.00
77939;BME280;67136;47.546;21.630;2023-12-20T15:40:07;99603.59;;;-0.29;100.00
77939;BME280;67136;47.546;21.630;2023-12-20T15:43:12;99594.34;;;0.02;100.00
77939;BME280;67136;47.546;21.630;2023-12-20T15:46:15;99612.44;;;-0.02;100.00
77939;BME280;67136;47.546;21.630;2023-12-20T15:49:18;99623.41;;;0.02;100.00
77939;BME280;67136;47.546;21.630;2023-12-20T15:52:21;99617.97;;;0.08;100.00
77939;BME280;67136;47.546;21.630;2023-12-20T15:55:24;99618.78;;;0.09;100.00